sensor_id;sensor_type;location;lat;lon;timestamp;pressure;altitude;pressure_sealevel;temperature;humidity
21276;BME280;36472;52.170;20.884;2023-12-04T00:01:06;100785.88;;;-0.06;88.61
21276;BME280;36472;52.170;20.884;2023-12-04T00:03:44;100793.69;;;-0.09;89.11
21276;BME280;36472;52.170;20.884;2023-12-04T00:06:15;100797.94;;;-0.05;88.77
21276;BME280;36472;52.170;20.884;2023-12-04T00:08:44;100785.00;;;-0.03;89.10
21276;BME280;36472;52.170;20.884;2023-12-04T00:11:13;100797.00;;;-0.01;89.47
21276;BME280;36472;52.170;20.884;2023-12-04T00:13:42;100800.56;;;-0.06;89.72
21276;BME280;36472;52.170;20.884;2023-12-04T00:16:10;100792.75;;;-0.02;89.96
21276;BME280;36472;52.170;20.884;2023-12-04T00:18:40;100797.78;;;0.05;89.39
21276;BME280;36472;52.170;20.884;2023-12-04T00:21:09;100799.50;;;0.06;89.73
21276;BME280;36472;52.170;20.884;2023-12-04T00:23:39;100796.97;;;0.03;89.78
21276;BME280;36472;52.170;20.884;2023-12-04T00:26:09;100802.16;;;0.01;89.42
21276;BME280;36472;52.170;20.884;2023-12-04T00:28:38;100809.03;;;0.02;89.54
21276;BME280;36472;52.170;20.884;2023-12-04T00:31:08;100814.91;;;0.12;90.05
21276;BME280;36472;52.170;20.884;2023-12-04T00:33:38;100805.53;;;0.06;90.02
21276;BME280;36472;52.170;20.884;2023-12-04T00:36:09;100813.38;;;0.00;89.56
21276;BME280;36472;52.170;20.884;2023-12-04T00:38:40;100809.03;;;0.02;89.48
21276;BME280;36472;52.170;20.884;2023-12-04T00:41:10;100818.50;;;0.03;90.05
21276;BME280;36472;52.170;20.884;2023-12-04T00:43:39;100821.06;;;0.05;89.85
21276;BME280;36472;52.170;20.884;2023-12-04T00:46:08;100823.53;;;0.12;89.60
21276;BME280;36472;52.170;20.884;2023-12-04T00:48:37;100821.78;;;0.13;89.37
21276;BME280;36472;52.170;20.884;2023-12-04T00:51:07;100827.00;;;0.10;89.40
21276;BME280;36472;52.170;20.884;2023-12-04T00:53:36;100826.00;;;0.20;89.35
21276;BME280;36472;52.170;20.884;2023-12-04T00:56:08;100823.41;;;0.20;89.10
21276;BME280;36472;52.170;20.884;2023-12-04T00:58:37;100823.53;;;0.14;88.95
21276;BME280;36472;52.170;20.884;2023-12-04T01:01:06;100825.09;;;0.24;89.04
21276;BME280;36472;52.170;20.884;2023-12-04T01:03:36;100827.59;;;0.27;88.98
21276;BME280;36472;52.170;20.884;2023-12-04T01:06:07;100833.69;;;0.23;88.96
21276;BME280;36472;52.170;20.884;2023-12-04T01:08:36;100842.41;;;0.19;89.17
21276;BME280;36472;52.170;20.884;2023-12-04T01:11:06;100836.25;;;0.26;88.72
21276;BME280;36472;52.170;20.884;2023-12-04T01:13:36;100844.88;;;0.25;89.17
21276;BME280;36472;52.170;20.884;2023-12-04T01:16:06;100840.56;;;0.26;88.68
21276;BME280;36472;52.170;20.884;2023-12-04T01:18:36;100845.75;;;0.26;88.39
21276;BME280;36472;52.170;20.884;2023-12-04T01:21:05;100844.03;;;0.25;88.85
21276;BME280;36472;52.170;20.884;2023-12-04T01:23:37;100844.88;;;0.25;89.04
21276;BME280;36472;52.170;20.884;2023-12-04T01:26:07;100848.22;;;0.32;88.72
21276;BME280;36472;52.170;20.884;2023-12-04T01:28:39;100834.53;;;0.25;88.22
21276;BME280;36472;52.170;20.884;2023-12-04T01:31:08;100850.78;;;0.33;88.55
21276;BME280;36472;52.170;20.884;2023-12-04T01:33:37;100849.91;;;0.36;88.25
21276;BME280;36472;52.170;20.884;2023-12-04T01:36:07;100854.28;;;0.31;87.68
21276;BME280;36472;52.170;20.884;2023-12-04T01:38:37;100850.84;;;0.29;88.11
21276;BME280;36472;52.170;20.884;2023-12-04T01:41:08;100853.44;;;0.27;87.41
21276;BME280;36472;52.170;20.884;2023-12-04T01:43:37;100857.13;;;0.12;87.57
21276;BME280;36472;52.170;20.884;2023-12-04T01:46:06;100853.75;;;0.09;87.72
21276;BME280;36472;52.170;20.884;2023-12-04T01:48:37;100856.16;;;0.20;87.19
21276;BME280;36472;52.170;20.884;2023-12-04T01:51:09;100857.13;;;0.12;86.64
21276;BME280;36472;52.170;20.884;2023-12-04T01:53:40;100864.00;;;0.13;86.14
21276;BME280;36472;52.170;20.884;2023-12-04T01:56:11;100878.69;;;0.10;85.73
21276;BME280;36472;52.170;20.884;2023-12-04T01:58:42;100877.81;;;0.12;85.73
21276;BME280;36472;52.170;20.884;2023-12-04T02:01:12;100878.66;;;0.13;84.99
21276;BME280;36472;52.170;20.884;2023-12-04T02:03:42;100888.34;;;0.00;85.38
21276;BME280;36472;52.170;20.884;2023-12-04T02:06:12;100884.97;;;-0.07;85.65
21276;BME280;36472;52.170;20.884;2023-12-04T02:08:42;100892.72;;;-0.07;85.61
21276;BME280;36472;52.170;20.884;2023-12-04T02:11:12;100897.81;;;-0.02;85.65
21276;BME280;36472;52.170;20.884;2023-12-04T02:13:42;100899.63;;;-0.10;85.76
21276;BME280;36472;52.170;20.884;2023-12-04T02:16:14;100909.16;;;-0.12;85.42
21276;BME280;36472;52.170;20.884;2023-12-04T02:18:43;100909.25;;;-0.18;84.85
21276;BME280;36472;52.170;20.884;2023-12-04T02:21:13;100910.28;;;-0.33;85.03
21276;BME280;36472;52.170;20.884;2023-12-04T02:23:42;100903.34;;;-0.30;84.70
21276;BME280;36472;52.170;20.884;2023-12-04T02:26:16;100886.22;;;-0.37;84.78
21276;BME280;36472;52.170;20.884;2023-12-04T02:28:55;100907.56;;;-0.23;84.46
21276;BME280;36472;52.170;20.884;2023-12-04T02:31:29;100901.69;;;-0.34;83.93
21276;BME280;36472;52.170;20.884;2023-12-04T02:34:00;100903.47;;;-0.39;84.49
21276;BME280;36472;52.170;20.884;2023-12-04T02:36:35;100900.91;;;-0.41;84.75
21276;BME280;36472;52.170;20.884;2023-12-04T02:39:05;100902.66;;;-0.43;84.82
21276;BME280;36472;52.170;20.884;2023-12-04T02:41:36;100901.72;;;-0.39;84.80
21276;BME280;36472;52.170;20.884;2023-12-04T02:44:05;100893.03;;;-0.33;85.34
21276;BME280;36472;52.170;20.884;2023-12-04T02:46:34;100907.53;;;-0.21;84.89
21276;BME280;36472;52.170;20.884;2023-12-04T02:49:04;100908.34;;;-0.16;84.72
21276;BME280;36472;52.170;20.884;2023-12-04T02:51:32;100906.56;;;-0.12;84.66
21276;BME280;36472;52.170;20.884;2023-12-04T02:54:01;100907.31;;;-0.03;84.40
21276;BME280;36472;52.170;20.884;2023-12-04T02:56:31;100911.63;;;-0.02;84.23
21276;BME280;36472;52.170;20.884;2023-12-04T02:59:01;100910.84;;;-0.08;83.75
21276;BME280;36472;52.170;20.884;2023-12-04T03:01:30;100915.22;;;-0.15;83.72
21276;BME280;36472;52.170;20.884;2023-12-04T03:03:59;100907.44;;;-0.12;83.89
21276;BME280;36472;52.170;20.884;2023-12-04T03:06:28;100913.44;;;-0.10;83.81
21276;BME280;36472;52.170;20.884;2023-12-04T03:08:58;100922.03;;;-0.09;83.81
21276;BME280;36472;52.170;20.884;2023-12-04T03:11:27;100916.06;;;-0.14;83.30
21276;BME280;36472;52.170;20.884;2023-12-04T03:13:59;100916.06;;;-0.13;83.39
21276;BME280;36472;52.170;20.884;2023-12-04T03:16:29;100924.63;;;-0.11;84.04
21276;BME280;36472;52.170;20.884;2023-12-04T03:18:59;100928.94;;;-0.10;83.52
21276;BME280;36472;52.170;20.884;2023-12-04T03:21:28;100922.09;;;-0.15;83.64
21276;BME280;36472;52.170;20.884;2023-12-04T03:23:58;100916.25;;;-0.28;83.79
21276;BME280;36472;52.170;20.884;2023-12-04T03:26:27;100932.63;;;-0.31;83.48
21276;BME280;36472;52.170;20.884;2023-12-04T03:28:57;100931.72;;;-0.27;83.85
21276;BME280;36472;52.170;20.884;2023-12-04T03:31:26;100932.56;;;-0.26;83.68
21276;BME280;36472;52.170;20.884;2023-12-04T03:33:57;100926.44;;;-0.19;83.84
21276;BME280;36472;52.170;20.884;2023-12-04T03:36:26;100928.22;;;-0.23;83.17
21276;BME280;36472;52.170;20.884;2023-12-04T03:38:55;100935.94;;;-0.18;83.49
21276;BME280;36472;52.170;20.884;2023-12-04T03:41:24;100935.94;;;-0.18;83.59
21276;BME280;36472;52.170;20.884;2023-12-04T03:43:54;100931.59;;;-0.16;83.39
21276;BME280;36472;52.170;20.884;2023-12-04T03:46:23;100945.44;;;-0.20;83.41
21276;BME280;36472;52.170;20.884;2023-12-04T03:48:52;100940.31;;;-0.26;82.90
21276;BME280;36472;52.170;20.884;2023-12-04T03:51:22;100943.06;;;-0.39;83.17
21276;BME280;36472;52.170;20.884;2023-12-04T03:53:52;100934.38;;;-0.33;83.57
21276;BME280;36472;52.170;20.884;2023-12-04T03:56:21;100946.47;;;-0.38;83.70
21276;BME280;36472;52.170;20.884;2023-12-04T03:58:50;100946.47;;;-0.36;84.04
21276;BME280;36472;52.170;20.884;2023-12-04T04:01:19;100950.81;;;-0.39;83.75
21276;BME280;36472;52.170;20.884;2023-12-04T04:03:48;100948.25;;;-0.43;83.35
21276;BME280;36472;52.170;20.884;2023-12-04T04:06:17;100947.41;;;-0.44;83.81
21276;BME280;36472;52.170;20.884;2023-12-04T04:08:47;100953.50;;;-0.49;83.98
21276;BME280;36472;52.170;20.884;2023-12-04T04:11:16;100953.53;;;-0.52;84.14
21276;BME280;36472;52.170;20.884;2023-12-04T04:13:46;100952.63;;;-0.50;83.92
21276;BME280;36472;52.170;20.884;2023-12-04T04:16:15;100963.75;;;-0.43;83.86
21276;BME280;36472;52.170;20.884;2023-12-04T04:18:44;100954.34;;;-0.46;83.81
21276;BME280;36472;52.170;20.884;2023-12-04T04:21:13;100955.97;;;-0.39;83.70
21276;BME280;36472;52.170;20.884;2023-12-04T04:23:42;100955.03;;;-0.34;83.52
21276;BME280;36472;52.170;20.884;2023-12-04T04:26:13;100959.38;;;-0.36;83.23
21276;BME280;36472;52.170;20.884;2023-12-04T04:28:42;100956.94;;;-0.49;83.39
21276;BME280;36472;52.170;20.884;2023-12-04T04:31:11;100951.78;;;-0.49;83.51
21276;BME280;36472;52.170;20.884;2023-12-04T04:33:40;100944.06;;;-0.53;83.78
21276;BME280;36472;52.170;20.884;2023-12-04T04:36:10;100948.38;;;-0.54;83.78
21276;BME280;36472;52.170;20.884;2023-12-04T04:38:40;100958.69;;;-0.51;83.78
21276;BME280;36472;52.170;20.884;2023-12-04T04:41:14;100962.94;;;-0.48;83.96
21276;BME280;36472;52.170;20.884;2023-12-04T04:43:44;100965.50;;;-0.44;83.81
21276;BME280;36472;52.170;20.884;2023-12-04T04:46:13;100962.97;;;-0.51;84.04
21276;BME280;36472;52.170;20.884;2023-12-04T04:48:42;100956.31;;;-0.71;84.71
21276;BME280;36472;52.170;20.884;2023-12-04T04:51:11;100962.97;;;-0.51;84.44
21276;BME280;36472;52.170;20.884;2023-12-04T04:53:40;100962.06;;;-0.46;84.09
21276;BME280;36472;52.170;20.884;2023-12-04T04:56:09;100965.44;;;-0.38;83.65
21276;BME280;36472;52.170;20.884;2023-12-04T04:58:41;100966.28;;;-0.35;83.45
21276;BME280;36472;52.170;20.884;2023-12-04T05:01:10;100959.47;;;-0.44;83.86
21276;BME280;36472;52.170;20.884;2023-12-04T05:03:39;100962.06;;;-0.46;83.78
21276;BME280;36472;52.170;20.884;2023-12-04T05:06:09;100959.53;;;-0.50;83.92
21276;BME280;36472;52.170;20.884;2023-12-04T05:08:38;100961.28;;;-0.52;83.42
21276;BME280;36472;52.170;20.884;2023-12-04T05:11:07;100966.44;;;-0.52;83.68
21276;BME280;36472;52.170;20.884;2023-12-04T05:13:36;100963.06;;;-0.56;83.92
21276;BME280;36472;52.170;20.884;2023-12-04T05:16:07;100969.88;;;-0.52;83.38
21276;BME280;36472;52.170;20.884;2023-12-04T05:18:38;100964.72;;;-0.53;83.21
21276;BME280;36472;52.170;20.884;2023-12-04T05:21:08;100973.34;;;-0.53;83.34
21276;BME280;36472;52.170;20.884;2023-12-04T05:23:38;100974.97;;;-0.44;83.76
21276;BME280;36472;52.170;20.884;2023-12-04T05:26:07;100970.72;;;-0.50;83.37
21276;BME280;36472;52.170;20.884;2023-12-04T05:28:37;100976.75;;;-0.48;83.17
21276;BME280;36472;52.170;20.884;2023-12-04T05:31:07;100970.72;;;-0.50;83.05
21276;BME280;36472;52.170;20.884;2023-12-04T05:33:36;100969.81;;;-0.44;83.18
21276;BME280;36472;52.170;20.884;2023-12-04T05:36:10;100971.56;;;-0.48;82.64
21276;BME280;36472;52.170;20.884;2023-12-04T05:38:39;100973.38;;;-0.56;82.89
21276;BME280;36472;52.170;20.884;2023-12-04T05:41:08;100979.34;;;-0.51;82.76
21276;BME280;36472;52.170;20.884;2023-12-04T05:43:37;100975.00;;;-0.46;83.09
21276;BME280;36472;52.170;20.884;2023-12-04T05:46:07;100974.19;;;-0.51;82.86
21276;BME280;36472;52.170;20.884;2023-12-04T05:48:37;100980.09;;;-0.41;83.04
21276;BME280;36472;52.170;20.884;2023-12-04T05:51:06;100974.97;;;-0.43;82.57
21276;BME280;36472;52.170;20.884;2023-12-04T05:53:35;100982.81;;;-0.53;82.67
21276;BME280;36472;52.170;20.884;2023-12-04T05:56:06;100981.16;;;-0.59;82.88
21276;BME280;36472;52.170;20.884;2023-12-04T05:58:36;100980.34;;;-0.64;83.46
21276;BME280;36472;52.170;20.884;2023-12-04T06:01:07;100986.28;;;-0.54;82.81
21276;BME280;36472;52.170;20.884;2023-12-04T06:03:36;100979.34;;;-0.51;82.98
21276;BME280;36472;52.170;20.884;2023-12-04T06:06:06;100988.91;;;-0.61;82.95
21276;BME280;36472;52.170;20.884;2023-12-04T06:08:35;100994.94;;;-0.62;82.63
21276;BME280;36472;52.170;20.884;2023-12-04T06:11:04;100985.53;;;-0.67;82.85
21276;BME280;36472;52.170;20.884;2023-12-04T06:13:34;100991.44;;;-0.53;83.07
21276;BME280;36472;52.170;20.884;2023-12-04T06:16:07;100991.44;;;-0.54;82.54
21276;BME280;36472;52.170;20.884;2023-12-04T06:18:36;101003.44;;;-0.49;83.04
21276;BME280;36472;52.170;20.884;2023-12-04T06:21:06;100999.06;;;-0.45;82.78
21276;BME280;36472;52.170;20.884;2023-12-04T06:23:36;101001.69;;;-0.47;82.85
21276;BME280;36472;52.170;20.884;2023-12-04T06:26:06;100998.16;;;-0.40;82.38
21276;BME280;36472;52.170;20.884;2023-12-04T06:28:37;101004.25;;;-0.47;82.63
21276;BME280;36472;52.170;20.884;2023-12-04T06:31:09;100999.97;;;-0.48;82.70
21276;BME280;36472;52.170;20.884;2023-12-04T06:33:39;101003.41;;;-0.46;82.79
21276;BME280;36472;52.170;20.884;2023-12-04T06:36:12;101005.88;;;-0.38;82.95
21276;BME280;36472;52.170;20.884;2023-12-04T06:38:43;101011.03;;;-0.36;83.07
21276;BME280;36472;52.170;20.884;2023-12-04T06:41:16;101002.47;;;-0.40;82.36
21276;BME280;36472;52.170;20.884;2023-12-04T06:43:47;101002.44;;;-0.35;82.72
21276;BME280;36472;52.170;20.884;2023-12-04T06:46:25;101000.72;;;-0.38;82.78
21276;BME280;36472;52.170;20.884;2023-12-04T06:48:59;100997.28;;;-0.37;82.43
21276;BME280;36472;52.170;20.884;2023-12-04T06:51:28;101001.56;;;-0.36;82.64
21276;BME280;36472;52.170;20.884;2023-12-04T06:53:57;101006.69;;;-0.31;82.07
21276;BME280;36472;52.170;20.884;2023-12-04T06:56:26;101008.31;;;-0.24;82.12
21276;BME280;36472;52.170;20.884;2023-12-04T06:58:55;101003.16;;;-0.26;81.99
21276;BME280;36472;52.170;20.884;2023-12-04T07:01:26;101012.63;;;-0.25;82.32
21276;BME280;36472;52.170;20.884;2023-12-04T07:03:55;101014.25;;;-0.14;81.97
21276;BME280;36472;52.170;20.884;2023-12-04T07:06:24;101009.91;;;-0.11;82.22
21276;BME280;36472;52.170;20.884;2023-12-04T07:08:53;101011.59;;;-0.07;82.02
21276;BME280;36472;52.170;20.884;2023-12-04T07:11:22;101011.63;;;-0.11;81.50
21276;BME280;36472;52.170;20.884;2023-12-04T07:13:52;101015.00;;;-0.05;81.43
21276;BME280;36472;52.170;20.884;2023-12-04T07:16:21;101015.00;;;-0.05;81.27
21276;BME280;36472;52.170;20.884;2023-12-04T07:18:52;101015.88;;;-0.07;81.74
21276;BME280;36472;52.170;20.884;2023-12-04T07:21:21;101019.38;;;-0.08;81.35
21276;BME280;36472;52.170;20.884;2023-12-04T07:23:50;101015.06;;;-0.11;81.73
21276;BME280;36472;52.170;20.884;2023-12-04T07:26:19;101021.84;;;-0.01;80.94
21276;BME280;36472;52.170;20.884;2023-12-04T07:28:48;101021.78;;;0.06;81.47
21276;BME280;36472;52.170;20.884;2023-12-04T07:31:17;101025.22;;;0.05;80.99
21276;BME280;36472;52.170;20.884;2023-12-04T07:33:46;101024.34;;;0.07;80.76
21276;BME280;36472;52.170;20.884;2023-12-04T07:36:16;101020.97;;;0.02;80.48
21276;BME280;36472;52.170;20.884;2023-12-04T07:38:45;101016.75;;;-0.07;80.90
21276;BME280;36472;52.170;20.884;2023-12-04T07:41:14;101024.47;;;-0.05;81.15
21276;BME280;36472;52.170;20.884;2023-12-04T07:43:43;101028.81;;;-0.09;80.66
21276;BME280;36472;52.170;20.884;2023-12-04T07:46:12;101028.75;;;-0.01;80.60
21276;BME280;36472;52.170;20.884;2023-12-04T07:48:42;101022.81;;;-0.09;81.13
21276;BME280;36472;52.170;20.884;2023-12-04T07:51:11;101030.44;;;0.02;81.14
21276;BME280;36472;52.170;20.884;2023-12-04T07:53:42;101031.31;;;0.01;81.48
21276;BME280;36472;52.170;20.884;2023-12-04T07:56:12;101013.25;;;-0.03;81.38
21276;BME280;36472;52.170;20.884;2023-12-04T07:58:41;101029.56;;;0.03;81.30
21276;BME280;36472;52.170;20.884;2023-12-04T08:01:10;101032.94;;;0.11;81.22
21276;BME280;36472;52.170;20.884;2023-12-04T08:03:39;101033.72;;;0.17;80.76
21276;BME280;36472;52.170;20.884;2023-12-04T08:06:09;101047.44;;;0.21;80.71
21276;BME280;36472;52.170;20.884;2023-12-04T08:08:38;101044.88;;;0.20;80.12
21276;BME280;36472;52.170;20.884;2023-12-04T08:11:09;101039.66;;;0.26;80.77
21276;BME280;36472;52.170;20.884;2023-12-04T08:13:39;101042.25;;;0.24;80.41
21276;BME280;36472;52.170;20.884;2023-12-04T08:16:13;101043.94;;;0.27;80.32
21276;BME280;36472;52.170;20.884;2023-12-04T08:18:43;101043.09;;;0.23;79.98
21276;BME280;36472;52.170;20.884;2023-12-04T08:21:13;101038.94;;;0.13;80.80
21276;BME280;36472;52.170;20.884;2023-12-04T08:23:42;101045.63;;;0.29;80.77
21276;BME280;36472;52.170;20.884;2023-12-04T08:26:12;101031.94;;;0.21;79.85
21276;BME280;36472;52.170;20.884;2023-12-04T08:28:43;101047.53;;;0.12;79.60
21276;BME280;36472;52.170;20.884;2023-12-04T08:31:12;101049.38;;;0.05;79.71
21276;BME280;36472;52.170;20.884;2023-12-04T08:33:41;101041.63;;;0.04;79.79
21276;BME280;36472;52.170;20.884;2023-12-04T08:36:11;101046.84;;;-0.01;79.96
21276;BME280;36472;52.170;20.884;2023-12-04T08:38:40;101053.69;;;0.03;79.48
21276;BME280;36472;52.170;20.884;2023-12-04T08:41:09;101052.78;;;0.07;80.01
21276;BME280;36472;52.170;20.884;2023-12-04T08:43:40;101053.59;;;0.11;79.86
21276;BME280;36472;52.170;20.884;2023-12-04T08:46:12;101053.50;;;0.17;80.26
21276;BME280;36472;52.170;20.884;2023-12-04T08:48:42;101059.59;;;0.14;79.66
21276;BME280;36472;52.170;20.884;2023-12-04T08:51:15;101061.25;;;0.18;79.48
21276;BME280;36472;52.170;20.884;2023-12-04T08:53:45;101072.53;;;0.11;79.82
21276;BME280;36472;52.170;20.884;2023-12-04T08:56:14;101059.59;;;0.13;79.52
21276;BME280;36472;52.170;20.884;2023-12-04T08:58:53;101064.69;;;0.21;79.44
21276;BME280;36472;52.170;20.884;2023-12-04T09:01:22;101069.88;;;0.19;79.51
21276;BME280;36472;52.170;20.884;2023-12-04T09:03:52;101068.03;;;0.29;79.41
21276;BME280;36472;52.170;20.884;2023-12-04T09:06:21;101071.41;;;0.35;79.44
21276;BME280;36472;52.170;20.884;2023-12-04T09:09:10;101079.91;;;0.45;78.97
21276;BME280;36472;52.170;20.884;2023-12-04T09:11:42;101067.13;;;0.34;78.44
21276;BME280;36472;52.170;20.884;2023-12-04T09:14:13;101074.09;;;0.28;78.56
21276;BME280;36472;52.170;20.884;2023-12-04T09:16:42;101069.75;;;0.28;78.34
21276;BME280;36472;52.170;20.884;2023-12-04T09:19:11;101066.31;;;0.31;78.88
21276;BME280;36472;52.170;20.884;2023-12-04T09:21:40;101072.28;;;0.36;78.60
21276;BME280;36472;52.170;20.884;2023-12-04T09:24:10;101081.66;;;0.45;78.48
21276;BME280;36472;52.170;20.884;2023-12-04T09:26:39;101073.91;;;0.43;78.69
21276;BME280;36472;52.170;20.884;2023-12-04T09:29:08;101075.63;;;0.43;78.12
21276;BME280;36472;52.170;20.884;2023-12-04T09:31:38;101073.78;;;0.51;78.35
21276;BME280;36472;52.170;20.884;2023-12-04T09:34:09;101069.44;;;0.53;78.05
21276;BME280;36472;52.170;20.884;2023-12-04T09:36:38;101072.81;;;0.58;77.39
21276;BME280;36472;52.170;20.884;2023-12-04T09:39:07;101065.06;;;0.58;78.19
21276;BME280;36472;52.170;20.884;2023-12-04T09:41:37;101063.28;;;0.63;77.81
21276;BME280;36472;52.170;20.884;2023-12-04T09:44:08;101067.63;;;0.60;77.49
21276;BME280;36472;52.170;20.884;2023-12-04T09:46:38;101058.16;;;0.62;77.46
21276;BME280;36472;52.170;20.884;2023-12-04T09:49:08;101053.88;;;0.58;77.52
21276;BME280;36472;52.170;20.884;2023-12-04T09:51:39;101061.53;;;0.65;77.60
21276;BME280;36472;52.170;20.884;2023-12-04T09:54:09;101050.31;;;0.66;77.62
21276;BME280;36472;52.170;20.884;2023-12-04T09:56:38;101058.84;;;0.73;77.89
21276;BME280;36472;52.170;20.884;2023-12-04T09:59:08;101059.84;;;0.63;76.97
21276;BME280;36472;52.170;20.884;2023-12-04T10:01:41;101061.38;;;0.76;77.04
21276;BME280;36472;52.170;20.884;2023-12-04T10:04:11;101057.88;;;0.80;76.25
21276;BME280;36472;52.170;20.884;2023-12-04T10:06:40;101053.47;;;0.87;76.07
21276;BME280;36472;52.170;20.884;2023-12-04T10:09:09;101055.91;;;0.98;76.96
21276;BME280;36472;52.170;20.884;2023-12-04T10:11:40;101056.69;;;1.04;76.48
21276;BME280;36472;52.170;20.884;2023-12-04T10:14:16;101050.63;;;1.04;75.49
21276;BME280;36472;52.170;20.884;2023-12-04T10:16:47;101049.63;;;1.12;75.25
21276;BME280;36472;52.170;20.884;2023-12-04T10:19:20;101048.69;;;1.18;76.07
21276;BME280;36472;52.170;20.884;2023-12-04T10:21:51;101035.75;;;1.17;74.99
21276;BME280;36472;52.170;20.884;2023-12-04T10:24:30;101038.94;;;1.34;74.77
21276;BME280;36472;52.170;20.884;2023-12-04T10:27:00;101045.13;;;1.25;74.38
21276;BME280;36472;52.170;20.884;2023-12-04T10:29:40;101034.66;;;1.32;74.71
21276;BME280;36472;52.170;20.884;2023-12-04T10:32:11;101046.75;;;1.29;73.89
21276;BME280;36472;52.170;20.884;2023-12-04T10:34:41;101035.34;;;1.41;74.34
21276;BME280;36472;52.170;20.884;2023-12-04T10:37:11;101032.72;;;1.44;73.90
21276;BME280;36472;52.170;20.884;2023-12-04T10:39:47;101035.13;;;1.54;73.60
21276;BME280;36472;52.170;20.884;2023-12-04T10:42:26;101012.78;;;1.48;72.75
21276;BME280;36472;52.170;20.884;2023-12-04T10:44:56;101031.63;;;1.58;73.53
21276;BME280;36472;52.170;20.884;2023-12-04T10:47:28;101034.94;;;1.66;73.25
21276;BME280;36472;52.170;20.884;2023-12-04T10:49:58;101044.59;;;1.56;72.82
21276;BME280;36472;52.170;20.884;2023-12-04T10:52:30;101040.22;;;1.60;73.07
21276;BME280;36472;52.170;20.884;2023-12-04T10:55:00;101040.91;;;1.70;73.59
21276;BME280;36472;52.170;20.884;2023-12-04T10:57:37;101040.63;;;1.85;73.50
21276;BME280;36472;52.170;20.884;2023-12-04T11:00:10;101040.56;;;1.88;73.34
21276;BME280;36472;52.170;20.884;2023-12-04T11:02:47;101038.63;;;1.98;73.62
21276;BME280;36472;52.170;20.884;2023-12-04T11:05:19;101031.66;;;2.01;72.64
21276;BME280;36472;52.170;20.884;2023-12-04T11:07:54;101047.16;;;2.04;71.83
21276;BME280;36472;52.170;20.884;2023-12-04T11:10:48;101039.25;;;2.11;72.01
21276;BME280;36472;52.170;20.884;2023-12-04T11:13:27;101038.47;;;2.07;72.14
21276;BME280;36472;52.170;20.884;2023-12-04T11:16:01;101031.66;;;2.01;71.81
21276;BME280;36472;52.170;20.884;2023-12-04T11:18:37;101036.75;;;2.06;71.58
21276;BME280;36472;52.170;20.884;2023-12-04T11:21:11;101043.78;;;2.01;71.81
21276;BME280;36472;52.170;20.884;2023-12-04T11:23:41;101047.97;;;2.06;72.02
21276;BME280;36472;52.170;20.884;2023-12-04T11:26:12;101045.66;;;1.91;71.59
21276;BME280;36472;52.170;20.884;2023-12-04T11:28:43;101037.91;;;1.91;71.96
21276;BME280;36472;52.170;20.884;2023-12-04T11:31:13;101037.78;;;1.97;71.84
21276;BME280;36472;52.170;20.884;2023-12-04T11:33:44;101035.06;;;2.05;71.75
21276;BME280;36472;52.170;20.884;2023-12-04T11:36:15;101027.16;;;2.10;72.25
21276;BME280;36472;52.170;20.884;2023-12-04T11:38:46;101029.66;;;2.16;71.57
21276;BME280;36472;52.170;20.884;2023-12-04T11:41:16;101019.28;;;2.16;71.38
21276;BME280;36472;52.170;20.884;2023-12-04T11:43:52;101027.88;;;2.18;71.08
21276;BME280;36472;52.170;20.884;2023-12-04T11:46:23;101014.75;;;2.26;71.88
21276;BME280;36472;52.170;20.884;2023-12-04T11:48:57;101019.88;;;2.27;71.40
21276;BME280;36472;52.170;20.884;2023-12-04T11:51:45;101024.22;;;2.27;70.35
21276;BME280;36472;52.170;20.884;2023-12-04T11:54:19;101014.63;;;2.32;70.69
21276;BME280;36472;52.170;20.884;2023-12-04T11:56:59;101014.56;;;2.35;71.08
21276;BME280;36472;52.170;20.884;2023-12-04T11:59:34;101019.00;;;2.30;70.97
21276;BME280;36472;52.170;20.884;2023-12-04T12:02:09;101015.00;;;2.13;71.49
21276;BME280;36472;52.170;20.884;2023-12-04T12:04:40;101017.56;;;2.15;69.96
21276;BME280;36472;52.170;20.884;2023-12-04T12:07:11;101017.44;;;2.21;70.93
21276;BME280;36472;52.170;20.884;2023-12-04T12:09:41;101012.19;;;2.24;71.52
21276;BME280;36472;52.170;20.884;2023-12-04T12:12:10;101014.66;;;2.30;70.95
21276;BME280;36472;52.170;20.884;2023-12-04T12:14:40;101014.59;;;2.33;70.98
21276;BME280;36472;52.170;20.884;2023-12-04T12:17:09;101011.97;;;2.35;70.88
21276;BME280;36472;52.170;20.884;2023-12-04T12:19:39;101014.59;;;2.33;70.25
21276;BME280;36472;52.170;20.884;2023-12-04T12:22:09;101006.13;;;2.23;69.82
21276;BME280;36472;52.170;20.884;2023-12-04T12:24:38;101010.59;;;2.17;69.97
21276;BME280;36472;52.170;20.884;2023-12-04T12:27:08;101000.13;;;2.21;71.12
21276;BME280;36472;52.170;20.884;2023-12-04T12:29:37;101003.63;;;2.20;71.35
21276;BME280;36472;52.170;20.884;2023-12-04T12:32:06;100997.50;;;2.23;70.91
21276;BME280;36472;52.170;20.884;2023-12-04T12:34:35;100998.34;;;2.23;69.81
21276;BME280;36472;52.170;20.884;2023-12-04T12:37:06;101001.78;;;2.26;71.04
21276;BME280;36472;52.170;20.884;2023-12-04T12:39:35;100998.28;;;2.27;71.89
21276;BME280;36472;52.170;20.884;2023-12-04T12:42:05;101001.63;;;2.33;72.11
21276;BME280;36472;52.170;20.884;2023-12-04T12:44:38;100996.63;;;2.24;71.30
21276;BME280;36472;52.170;20.884;2023-12-04T12:47:14;100991.44;;;2.24;71.08
21276;BME280;36472;52.170;20.884;2023-12-04T12:49:43;100985.31;;;2.27;70.99
21276;BME280;36472;52.170;20.884;2023-12-04T12:52:15;100987.84;;;2.31;71.32
21276;BME280;36472;52.170;20.884;2023-12-04T12:54:45;100991.25;;;2.33;70.99
21276;BME280;36472;52.170;20.884;2023-12-04T12:57:14;100986.91;;;2.34;71.36
21276;BME280;36472;52.170;20.884;2023-12-04T12:59:44;100991.31;;;2.29;72.17
21276;BME280;36472;52.170;20.884;2023-12-04T13:02:14;100992.22;;;2.28;72.17